Terminal Aerodrome Forecast
Issued by NWS

Home | Current Version | Previous Version | Graphics & Text | Print | Product List | Glossary On
Versions: 1 2 3 4 5 6 7 8 9 10 11 12 13 14 15 16
000
FTUS43 KPAH 252300
TAFCGI
TAF
KCGI 252329Z 2600/2624 00000KT P6SM SCT200
     FM261400 14005KT P6SM BKN080
     FM262000 08003KT 5SM -RA BR OVC030=

USA.gov is the U.S. government's official web portal to all federal, state and local government web resources and services.